Time;durP1;ratioP1;P1;durP2;ratioP2;P2;SDS_P1;SDS_P2;PMS_P1;PMS_P2;Temp;Humidity;BMP_temperature;BMP_pressure;BME280_temperature;BME280_humidity;BME280_pressure;Samples;Min_cycle;Max_cycle;Signal;HPM_P1;HPM_P2
2023/05/05 00:04:16;;;;;;;9.00;3.10;;;;;;;7.70;73.01;96747.91;10456640;28;20212;-66
2023/05/05 00:09:17;;;;;;;6.83;3.00;;;;;;;7.74;73.03;96736.25;10456092;28;20210;-66
2023/05/05 00:14:17;;;;;;;7.93;3.50;;;;;;;7.56;73.71;96754.34;10454988;28;20607;-65
2023/05/05 00:19:17;;;;;;;3.97;3.00;;;;;;;7.61;73.79;96750.38;10456020;28;20242;-65
2023/05/05 00:24:18;;;;;;;3.67;2.67;;;;;;;7.62;73.90;96748.59;10455754;28;20211;-64
2023/05/05 00:29:18;;;;;;;5.47;2.93;;;;;;;7.63;73.72;96735.41;10455631;28;20206;-65
2023/05/05 00:34:18;;;;;;;6.87;3.00;;;;;;;7.56;74.18;96738.72;10455124;28;20219;-66
2023/05/05 00:39:19;;;;;;;4.63;2.80;;;;;;;7.52;74.48;96732.13;10453931;28;20223;-66
2023/05/05 00:44:34;;;;;;;4.13;2.80;;;;;;;7.43;74.86;96747.63;10453484;28;20262;-66
2023/05/05 00:49:35;;;;;;;4.93;3.03;;;;;;;7.44;75.01;96736.25;10454460;28;20214;-65
2023/05/05 00:54:36;;;;;;;4.40;3.00;;;;;;;7.41;75.33;96730.47;10453265;28;20266;-66
2023/05/05 00:59:37;;;;;;;7.33;2.90;;;;;;;7.46;75.26;96718.69;10436138;28;20639;-65
2023/05/05 01:04:38;;;;;;;6.33;3.27;;;;;;;7.54;75.21;96711.97;10454156;28;20210;-66
2023/05/05 01:10:01;;;;;;;6.47;3.33;;;;;;;7.50;75.52;96714.84;10453853;28;20651;-66
2023/05/05 01:15:12;;;;;;;7.40;3.30;;;;;;;7.39;76.39;96727.19;10436002;28;20243;-66
2023/05/05 01:20:28;;;;;;;6.13;3.37;;;;;;;7.33;76.59;96728.53;10452404;28;20223;-66
2023/05/05 01:25:55;;;;;;;8.90;3.53;;;;;;;7.27;77.12;96729.94;10419011;28;20676;-66
2023/05/05 01:31:08;;;;;;;4.73;3.37;;;;;;;7.37;76.74;96735.13;10453230;28;20678;-65
2023/05/05 01:36:21;;;;;;;19.63;5.50;;;;;;;7.35;76.81;96729.25;10419077;28;20211;-66
2023/05/05 01:41:28;;;;;;;8.13;3.47;;;;;;;7.39;76.59;96733.22;10435555;28;20706;-66
2023/05/05 01:46:29;;;;;;;7.77;3.50;;;;;;;7.30;77.53;96736.63;10435358;28;20238;-66
2023/05/05 01:51:31;;;;;;;5.53;3.40;;;;;;;7.30;77.53;96734.88;10452690;28;20639;-65
2023/05/05 01:56:31;;;;;;;5.67;3.50;;;;;;;7.26;78.70;96740.47;10452782;28;20224;-67
2023/05/05 02:01:34;;;;;;;9.23;3.70;;;;;;;7.30;78.71;96740.06;10434748;28;20207;-66
2023/05/05 02:06:35;;;;;;;8.13;3.17;;;;;;;7.24;78.82;96737.16;10418405;28;20184;-66
2023/05/05 02:11:36;;;;;;;5.43;3.43;;;;;;;7.25;78.89;96728.41;10450875;28;20243;-66
2023/05/05 02:16:40;;;;;;;7.07;3.30;;;;;;;7.31;78.96;96725.25;10418060;28;20421;-65
2023/05/05 02:21:40;;;;;;;9.90;3.17;;;;;;;7.21;79.81;96720.00;10434698;28;20353;-66
2023/05/05 02:26:43;;;;;;;8.27;3.50;;;;;;;7.14;80.74;96724.94;10434225;28;20406;-66
2023/05/05 02:31:46;;;;;;;5.77;3.07;;;;;;;7.26;80.31;96715.25;10434180;28;20220;-66
2023/05/05 02:36:50;;;;;;;6.10;3.30;;;;;;;7.21;81.10;96719.19;10434562;28;20729;-66
2023/05/05 02:41:53;;;;;;;9.27;3.27;;;;;;;7.23;81.23;96712.91;10440824;28;20208;-65
2023/05/05 02:47:02;;;;;;;8.17;3.40;;;;;;;7.17;82.14;96710.00;10424938;28;20188;-66
2023/05/05 02:52:03;;;;;;;5.83;3.67;;;;;;;7.10;82.49;96710.53;10457845;28;20272;-66
2023/05/05 02:57:10;;;;;;;6.97;3.40;;;;;;;7.14;83.09;96705.91;10425548;28;20565;-66
2023/05/05 03:02:18;;;;;;;8.30;3.50;;;;;;;7.23;82.87;96714.66;10440842;28;20226;-64
2023/05/05 03:07:48;;;;;;;5.37;3.33;;;;;;;7.25;83.31;96710.97;10440883;28;20785;-65
2023/05/05 03:12:54;;;;;;;8.03;3.63;;;;;;;7.17;84.16;96707.41;10458002;28;20254;-66
2023/05/05 03:18:01;;;;;;;5.93;3.87;;;;;;;7.20;84.46;96707.13;10441512;28;20333;-65
2023/05/05 03:23:02;;;;;;;4.70;3.73;;;;;;;7.20;84.31;96700.16;10456802;28;20211;-66
2023/05/05 03:28:03;;;;;;;5.60;3.60;;;;;;;7.23;84.02;96697.28;10439968;28;20186;-66
2023/05/05 03:33:04;;;;;;;6.93;3.50;;;;;;;7.27;84.72;96698.66;10457810;28;20215;-65
2023/05/05 03:38:05;;;;;;;4.60;3.27;;;;;;;7.35;84.63;96704.94;10439578;28;20184;-65
2023/05/05 03:43:06;;;;;;;4.27;3.23;;;;;;;7.43;83.39;96695.50;10439099;28;20232;-65
2023/05/05 03:48:08;;;;;;;9.70;5.87;;;;;;;7.42;83.61;96696.44;10439355;28;20196;-66
2023/05/05 03:53:09;;;;;;;8.97;3.90;;;;;;;7.36;84.72;96706.59;10456156;28;20239;-66
2023/05/05 03:58:10;;;;;;;7.93;5.13;;;;;;;7.47;83.74;96706.47;10438760;28;20195;-65
2023/05/05 04:03:11;;;;;;;9.73;5.27;;;;;;;7.63;83.09;96705.94;10438167;28;20349;-65
2023/05/05 04:08:11;;;;;;;7.93;3.73;;;;;;;7.57;83.16;96703.88;10438663;28;20650;-66
2023/05/05 04:13:11;;;;;;;6.00;3.40;;;;;;;7.71;82.45;96700.00;10455648;28;20235;-65
2023/05/05 04:18:12;;;;;;;5.70;3.40;;;;;;;7.61;82.85;96705.22;10438072;28;20738;-66
2023/05/05 04:23:13;;;;;;;7.13;3.40;;;;;;;7.70;83.20;96708.78;10455748;28;20558;-66
2023/05/05 04:28:14;;;;;;;5.83;3.47;;;;;;;7.82;82.30;96703.28;10437579;28;20188;-66
2023/05/05 04:33:15;;;;;;;6.77;3.40;;;;;;;7.93;81.97;96704.94;10437944;28;20693;-65
2023/05/05 04:38:16;;;;;;;6.77;3.40;;;;;;;8.03;81.80;96704.91;10437038;28;20278;-64
2023/05/05 04:43:17;;;;;;;5.97;3.17;;;;;;;8.25;81.40;96697.72;10455204;28;20282;-65
2023/05/05 04:48:19;;;;;;;7.53;3.40;;;;;;;8.61;79.83;96693.47;10436949;28;20271;-65
2023/05/05 04:53:20;;;;;;;10.40;3.70;;;;;;;8.92;79.24;96686.16;10436472;28;20226;-65
2023/05/05 04:58:20;;;;;;;5.60;3.50;;;;;;;9.24;77.78;96677.00;10436903;28;21024;-65
2023/05/05 05:03:20;;;;;;;5.17;3.10;;;;;;;9.46;77.29;96677.53;10427366;28;20235;-66
2023/05/05 05:08:21;;;;;;;8.33;3.10;;;;;;;9.53;76.37;96665.50;10454323;28;20639;-66
2023/05/05 05:13:21;;;;;;;6.60;3.00;;;;;;;9.74;75.37;96659.94;10474495;23;20760;-66
2023/05/05 05:18:22;;;;;;;4.07;3.13;;;;;;;9.90;75.33;96659.22;10452167;28;20211;-66
2023/05/05 05:23:23;;;;;;;8.37;2.93;;;;;;;10.17;74.13;96660.06;10454939;28;20210;-66
2023/05/05 05:28:25;;;;;;;6.47;3.57;;;;;;;10.47;73.02;96642.22;10476474;28;20222;-66
2023/05/05 05:33:30;;;;;;;7.87;3.70;;;;;;;10.81;73.58;96654.44;10494184;28;20218;-66
2023/05/05 05:38:32;;;;;;;5.50;2.83;;;;;;;11.27;71.78;96639.16;10518064;28;20209;-66
2023/05/05 05:43:35;;;;;;;6.17;2.63;;;;;;;11.73;69.17;96613.25;10535961;28;20198;-65
2023/05/05 05:48:37;;;;;;;7.55;3.45;;;;;;;12.20;69.70;96631.88;10517945;28;20245;-66
2023/05/05 05:53:37;;;;;;;8.13;5.57;;;;;;;12.62;69.20;96630.75;10517203;28;20206;-66
2023/05/05 05:58:39;;;;;;;7.18;3.30;;;;;;;12.98;66.86;96610.00;10518275;28;20202;-65
2023/05/05 06:03:40;;;;;;;7.00;3.28;;;;;;;13.67;66.12;96617.06;10503299;28;20202;-65
2023/05/05 06:08:40;;;;;;;6.78;2.90;;;;;;;14.77;59.95;96533.00;10442687;28;20287;-66
2023/05/05 06:13:40;;;;;;;6.20;2.47;;;;;;;15.96;57.08;96511.22;10438205;28;20925;-66
2023/05/05 06:18:41;;;;;;;3.97;2.13;;;;;;;17.08;50.46;96420.97;10453737;28;20188;-66
2023/05/05 06:23:42;;;;;;;4.90;1.88;;;;;;;17.46;47.23;96376.09;10454008;28;20625;-67
2023/05/05 06:28:42;;;;;;;3.30;2.00;;;;;;;17.71;45.71;96356.84;10453476;28;20192;-67
2023/05/05 06:33:42;;;;;;;5.95;2.17;;;;;;;17.42;45.97;96372.22;10459949;28;20230;-66
2023/05/05 06:38:43;;;;;;;5.30;1.73;;;;;;;16.73;47.49;96400.78;10459685;28;20195;-66
2023/05/05 06:43:44;;;;;;;4.63;2.10;;;;;;;17.67;47.44;96431.66;10459445;28;20693;-67
2023/05/05 06:48:46;;;;;;;5.65;2.20;;;;;;;18.20;49.74;96479.22;10461541;28;20227;-67
2023/05/05 06:53:47;;;;;;;7.55;2.30;;;;;;;19.89;47.34;96472.47;10476967;28;20215;-66
2023/05/05 06:58:47;;;;;;;6.43;2.63;;;;;;;20.44;46.33;96472.44;10470412;28;20192;-67
2023/05/05 07:03:48;;;;;;;6.30;2.20;;;;;;;21.18;43.26;96421.56;10479134;28;20221;-67
2023/05/05 07:08:48;;;;;;;2.60;1.90;;;;;;;21.25;39.93;96330.06;10475059;28;20283;-66
2023/05/05 07:13:48;;;;;;;3.72;1.85;;;;;;;21.62;38.14;96308.47;10473461;28;21023;-67
2023/05/05 07:18:49;;;;;;;3.20;2.00;;;;;;;21.20;40.25;96368.88;10475549;28;20709;-66
2023/05/05 07:23:49;;;;;;;4.05;2.00;;;;;;;21.09;39.86;96355.56;10471851;28;20294;-67
2023/05/05 07:28:54;;;;;;;2.38;1.63;;;;;;;21.13;40.85;96386.00;10466845;28;20260;-66
2023/05/05 07:33:55;;;;;;;11.07;2.28;;;;;;;22.80;36.04;96305.16;10477343;28;20306;-66
2023/05/05 07:38:55;;;;;;;2.88;1.83;;;;;;;24.61;35.70;96356.28;10491455;28;20203;-67
2023/05/05 07:43:55;;;;;;;4.60;2.23;;;;;;;24.68;35.28;96348.84;10497018;28;20214;-66
2023/05/05 07:48:56;;;;;;;4.97;1.95;;;;;;;23.71;34.34;96284.47;10497030;28;20425;-66
2023/05/05 07:53:56;;;;;;;5.65;2.30;;;;;;;23.63;37.57;96384.63;10496601;28;20233;-66
2023/05/05 07:58:57;;;;;;;5.40;2.35;;;;;;;24.45;36.58;96400.84;10496951;28;20191;-67
2023/05/05 08:03:57;;;;;;;3.87;2.40;;;;;;;24.62;34.78;96352.56;10483122;28;20681;-67
2023/05/05 08:09:01;;;;;;;5.13;2.07;;;;;;;24.08;35.33;96338.09;10471730;28;21038;-67
2023/05/05 08:14:01;;;;;;;6.63;2.42;;;;;;;24.95;35.53;96377.44;10454290;28;20568;-68
2023/05/05 08:19:02;;;;;;;8.67;3.80;;;;;;;24.23;38.10;96425.81;10454864;28;20622;-68
2023/05/05 08:24:02;;;;;;;7.20;2.78;;;;;;;23.30;40.14;96443.28;10478254;28;20831;-68
2023/05/05 08:29:02;;;;;;;8.27;3.75;;;;;;;24.12;38.47;96427.56;10496092;28;20278;-67
2023/05/05 08:34:04;;;;;;;10.93;2.60;;;;;;;25.05;36.84;96413.22;10476724;28;20227;-68
2023/05/05 08:39:04;;;;;;;5.30;2.55;;;;;;;23.29;38.40;96380.19;10492860;28;20442;-67
2023/05/05 08:44:06;;;;;;;5.57;3.28;;;;;;;24.33;34.96;96318.81;10494919;28;20203;-67
2023/05/05 08:49:07;;;;;;;21.58;7.25;;;;;;;23.56;33.76;96258.34;10494724;28;20217;-68
2023/05/05 08:54:13;;;;;;;8.38;2.60;;;;;;;20.88;38.18;96315.16;10476318;28;20291;-68
2023/05/05 08:59:14;;;;;;;16.98;6.68;;;;;;;19.93;40.87;96346.84;10462004;28;20215;-67
2023/05/05 09:04:15;;;;;;;3.95;2.20;;;;;;;20.74;38.77;96341.19;10434923;28;20684;-67
2023/05/05 09:09:16;;;;;;;7.55;2.17;;;;;;;20.51;39.14;96347.25;10461934;28;20695;-68
2023/05/05 09:14:16;;;;;;;4.75;2.38;;;;;;;20.49;38.73;96346.69;10492953;28;20808;-68
2023/05/05 09:19:17;;;;;;;2.85;1.73;;;;;;;20.39;38.49;96331.25;10470614;28;20196;-67
2023/05/05 09:24:17;;;;;;;6.28;2.45;;;;;;;20.10;39.73;96355.00;10452456;28;20223;-67
2023/05/05 09:29:21;;;;;;;8.55;2.35;;;;;;;19.76;40.52;96369.75;10452198;28;20233;-67
2023/05/05 09:34:21;;;;;;;4.07;2.28;;;;;;;19.71;36.99;96274.75;10486664;28;20211;-67
2023/05/05 09:39:22;;;;;;;3.25;2.10;;;;;;;20.28;37.58;96322.22;10475021;28;20688;-67
2023/05/05 09:44:36;;;;;;;7.70;2.40;;;;;;;21.26;37.85;96369.00;10491561;28;20689;-67
2023/05/05 09:49:37;;;;;;;6.10;2.33;;;;;;;21.00;36.01;96299.16;10492278;28;20606;-67
2023/05/05 09:54:37;;;;;;;6.82;2.30;;;;;;;20.71;37.74;96340.84;10492590;28;20697;-67
2023/05/05 09:59:37;;;;;;;3.75;2.70;;;;;;;20.75;38.75;96374.75;10474396;28;20195;-67
2023/05/05 10:04:38;;;;;;;5.32;2.45;;;;;;;21.85;35.85;96328.91;10492507;28;20245;-66
2023/05/05 10:09:39;;;;;;;4.82;2.47;;;;;;;21.12;36.79;96323.13;10491925;28;20222;-67
2023/05/05 10:14:39;;;;;;;4.18;2.17;;;;;;;20.88;36.57;96304.50;10491358;28;20341;-67
2023/05/05 10:19:40;;;;;;;6.80;2.40;;;;;;;21.58;37.23;96342.78;10474084;28;20196;-67
2023/05/05 10:24:46;;;;;;;3.78;2.22;;;;;;;21.41;36.84;96328.53;10488805;28;20238;-67
2023/05/05 10:30:06;;;;;;;5.85;2.45;;;;;;;21.58;39.73;96409.44;10488806;28;20665;-67
2023/05/05 10:35:07;;;;;;;7.07;2.67;;;;;;;21.82;38.05;96370.19;10483788;28;20219;-67
2023/05/05 10:40:09;;;;;;;17.05;2.85;;;;;;;20.85;38.68;96347.56;10467308;28;20242;-67
2023/05/05 10:45:09;;;;;;;6.15;2.42;;;;;;;22.44;38.82;96412.19;10469177;28;20204;-67
2023/05/05 10:50:32;;;;;;;7.82;2.65;;;;;;;20.91;37.89;96314.69;10470263;28;20621;-67
2023/05/05 10:55:40;;;;;;;5.53;2.42;;;;;;;21.07;38.48;96342.47;10513952;28;20219;-67
2023/05/05 11:00:40;;;;;;;5.85;2.92;;;;;;;20.69;39.00;96356.22;10517573;28;20537;-68
2023/05/05 11:06:07;;;;;;;17.27;6.30;;;;;;;21.57;39.78;96399.00;10540835;28;20203;-66
2023/05/05 11:11:11;;;;;;;5.18;2.83;;;;;;;21.12;39.09;96358.56;10540916;28;20567;-67
2023/05/05 11:16:43;;;;;;;5.55;2.40;;;;;;;20.43;39.46;96328.97;10453336;22;20327;-67
2023/05/05 11:21:59;;;;;;;5.13;2.75;;;;;;;21.70;37.92;96340.91;10374648;28;20200;-68
2023/05/05 11:27:00;;;;;;;4.88;2.50;;;;;;;21.07;38.41;96326.50;10373912;28;20196;-69
2023/05/05 11:32:14;;;;;;;7.95;2.60;;;;;;;21.19;37.48;96283.84;10409968;28;20208;-67
2023/05/05 11:37:15;;;;;;;6.40;3.05;;;;;;;20.28;38.69;96289.50;10414149;28;20225;-67
2023/05/05 11:42:19;;;;;;;6.68;2.72;;;;;;;19.80;38.79;96283.25;10396563;28;20208;-68
2023/05/05 11:47:19;;;;;;;4.65;2.50;;;;;;;19.84;39.37;96303.00;10407709;28;20636;-68
2023/05/05 11:52:22;;;;;;;5.78;2.80;;;;;;;20.72;37.94;96299.84;10421135;28;20216;-67
2023/05/05 11:57:27;;;;;;;7.35;2.65;;;;;;;20.72;37.44;96282.06;10413458;28;20224;-67
2023/05/05 12:02:28;;;;;;;3.92;2.22;;;;;;;21.68;35.81;96264.84;10413160;28;20209;-68
2023/05/05 12:07:31;;;;;;;6.35;2.20;;;;;;;21.86;35.63;96266.53;10413647;28;20603;-68
2023/05/05 12:12:37;;;;;;;3.63;2.10;;;;;;;21.60;36.35;96268.72;10412697;28;20240;-67
2023/05/05 12:17:43;;;;;;;4.13;2.33;;;;;;;22.28;32.65;96194.09;10412761;28;20216;-67
2023/05/05 12:22:43;;;;;;;5.45;2.08;;;;;;;23.44;32.65;96229.06;10411689;28;20247;-67
2023/05/05 12:27:52;;;;;;;7.03;2.10;;;;;;;21.86;34.11;96210.53;10413125;28;20226;-68
2023/05/05 12:33:03;;;;;;;4.32;2.15;;;;;;;21.65;34.28;96212.81;10412459;28;20216;-68
2023/05/05 12:38:03;;;;;;;3.05;2.10;;;;;;;22.38;33.49;96223.66;10412689;28;20216;-67
2023/05/05 12:43:04;;;;;;;2.92;1.88;;;;;;;21.88;32.82;96169.25;10372927;28;20213;-68
2023/05/05 12:48:22;;;;;;;5.25;2.22;;;;;;;21.35;35.82;96234.38;10393665;28;20216;-67
2023/05/05 12:53:23;;;;;;;3.38;2.13;;;;;;;21.41;35.20;96228.09;10389061;28;20216;-67
2023/05/05 12:58:24;;;;;;;19.15;2.85;;;;;;;21.31;36.35;96251.88;10409136;28;20193;-67
2023/05/05 13:03:24;;;;;;;5.88;2.40;;;;;;;21.46;35.76;96235.38;10410844;28;20730;-68
2023/05/05 13:08:43;;;;;;;5.10;2.70;;;;;;;20.95;36.78;96240.47;10411763;28;20188;-66
2023/05/05 13:13:45;;;;;;;4.88;2.53;;;;;;;21.84;34.96;96231.28;10410803;28;20715;-66
2023/05/05 13:18:49;;;;;;;6.53;2.20;;;;;;;21.60;33.85;96169.28;10411797;28;20192;-67
2023/05/05 13:23:49;;;;;;;11.63;2.28;;;;;;;21.50;34.55;96177.88;10410284;28;20211;-67
2023/05/05 13:28:50;;;;;;;5.15;2.03;;;;;;;22.52;34.97;96224.13;10409212;28;20295;-67
2023/05/05 13:33:50;;;;;;;4.43;1.88;;;;;;;21.45;34.32;96154.59;10409947;28;20228;-67
2023/05/05 13:38:50;;;;;;;6.53;2.40;;;;;;;21.97;33.68;96142.94;10410446;28;20196;-67
2023/05/05 13:43:51;;;;;;;5.07;2.10;;;;;;;21.46;34.65;96150.88;10409869;28;20209;-66
2023/05/05 13:48:51;;;;;;;3.70;2.13;;;;;;;21.44;34.50;96142.34;10403171;28;20193;-67
2023/05/05 13:53:51;;;;;;;3.20;2.20;;;;;;;22.12;35.09;96181.59;10380738;28;20221;-68
2023/05/05 13:58:52;;;;;;;4.55;2.35;;;;;;;21.85;34.79;96158.22;10367850;28;20287;-66
2023/05/05 14:03:52;;;;;;;5.90;2.13;;;;;;;21.35;35.68;96170.41;10369239;28;20205;-67
2023/05/05 14:08:53;;;;;;;4.15;2.28;;;;;;;21.07;37.97;96216.47;10368643;28;20559;-67
2023/05/05 14:13:53;;;;;;;3.88;3.03;;;;;;;20.99;38.15;96215.78;10368151;28;20237;-66
2023/05/05 14:18:53;;;;;;;8.63;2.30;;;;;;;20.35;37.74;96175.00;10368925;28;20562;-67
2023/05/05 14:23:57;;;;;;;4.68;2.70;;;;;;;20.58;37.76;96182.97;10368762;28;20627;-66
2023/05/05 14:28:57;;;;;;;3.90;2.42;;;;;;;20.07;40.93;96256.25;10367098;28;20613;-67
2023/05/05 14:33:58;;;;;;;7.45;2.25;;;;;;;20.04;40.35;96240.75;10369032;28;20217;-67
2023/05/05 14:38:58;;;;;;;3.60;2.47;;;;;;;20.32;39.67;96232.13;10376469;28;20196;-65
2023/05/05 14:43:58;;;;;;;8.35;2.58;;;;;;;20.55;38.84;96212.72;10380284;28;21006;-67
2023/05/05 14:48:59;;;;;;;6.70;3.08;;;;;;;20.53;39.44;96225.41;10392839;28;20694;-67
2023/05/05 14:53:59;;;;;;;8.98;3.22;;;;;;;20.93;38.89;96231.91;10400013;28;20236;-68
2023/05/05 14:58:59;;;;;;;5.68;3.10;;;;;;;20.69;38.96;96212.47;10401661;28;20199;-67
2023/05/05 15:04:00;;;;;;;4.70;3.15;;;;;;;20.08;39.65;96205.50;10415455;28;20246;-67
2023/05/05 15:09:00;;;;;;;4.25;2.67;;;;;;;19.95;39.94;96216.34;10415754;28;20204;-67
2023/05/05 15:14:01;;;;;;;4.90;2.90;;;;;;;20.51;37.81;96173.50;10415907;28;20263;-67
2023/05/05 15:19:01;;;;;;;4.55;2.58;;;;;;;21.82;36.37;96180.03;10376392;28;20201;-67
2023/05/05 15:24:03;;;;;;;4.65;2.65;;;;;;;21.22;37.38;96176.81;10374905;28;20209;-67
2023/05/05 15:29:03;;;;;;;7.10;2.67;;;;;;;20.08;39.69;96194.06;10374629;28;20248;-67
2023/05/05 15:34:03;;;;;;;5.57;2.38;;;;;;;20.01;40.34;96211.97;10372676;28;20266;-65
2023/05/05 15:39:04;;;;;;;5.78;2.60;;;;;;;19.60;39.79;96183.31;10374657;28;20224;-66
2023/05/05 15:44:04;;;;;;;3.15;2.58;;;;;;;19.74;39.87;96193.72;10375332;28;20340;-65
2023/05/05 15:49:05;;;;;;;7.43;2.72;;;;;;;19.72;39.89;96182.53;10410989;28;20192;-66
2023/05/05 15:54:05;;;;;;;6.03;2.40;;;;;;;19.87;39.88;96187.44;10417046;28;20308;-66
2023/05/05 15:59:05;;;;;;;12.18;4.80;;;;;;;19.99;39.65;96184.81;10415395;28;20200;-66
2023/05/05 16:04:06;;;;;;;5.97;3.25;;;;;;;19.74;41.00;96213.16;10415044;28;20251;-66
2023/05/05 16:09:06;;;;;;;6.43;3.03;;;;;;;19.59;40.45;96184.34;10415286;28;20208;-66
2023/05/05 16:14:06;;;;;;;4.50;2.95;;;;;;;19.35;40.86;96187.97;10414665;28;20238;-65
2023/05/05 16:19:07;;;;;;;4.93;2.72;;;;;;;19.50;41.01;96208.81;10414874;28;20189;-66
2023/05/05 16:24:07;;;;;;;8.15;4.30;;;;;;;19.38;42.43;96233.47;10414298;28;20218;-66
2023/05/05 16:29:08;;;;;;;5.30;3.45;;;;;;;18.84;41.78;96182.81;10414336;28;20689;-66
2023/05/05 16:34:08;;;;;;;5.00;3.30;;;;;;;18.93;43.18;96222.38;10413941;28;20587;-66
2023/05/05 16:39:27;;;;;;;5.68;3.33;;;;;;;19.17;41.88;96202.06;10420501;28;20193;-67
2023/05/05 16:44:27;;;;;;;5.40;2.90;;;;;;;18.96;42.34;96192.72;10414197;28;20211;-66
2023/05/05 16:49:27;;;;;;;4.10;2.55;;;;;;;18.73;42.33;96186.22;10413319;28;20667;-66
2023/05/05 16:54:28;;;;;;;4.82;2.85;;;;;;;18.55;42.70;96192.31;10412119;28;20315;-67
2023/05/05 16:59:28;;;;;;;6.80;3.25;;;;;;;18.46;42.69;96183.84;10391440;28;20196;-67
2023/05/05 17:04:28;;;;;;;7.97;3.20;;;;;;;18.59;44.01;96224.53;10411518;28;20224;-67
2023/05/05 17:09:29;;;;;;;4.28;2.67;;;;;;;18.65;43.59;96213.88;10412431;28;20219;-66
2023/05/05 17:14:32;;;;;;;5.35;2.80;;;;;;;18.53;43.34;96197.06;10412074;28;20236;-66
2023/05/05 17:19:32;;;;;;;6.05;2.50;;;;;;;18.26;44.26;96217.69;10411519;28;20192;-65
2023/05/05 17:24:33;;;;;;;5.57;2.45;;;;;;;18.15;44.71;96221.88;10410576;28;20254;-65
2023/05/05 17:29:39;;;;;;;5.30;3.00;;;;;;;18.13;44.13;96211.47;10411642;28;20227;-65
2023/05/05 17:34:40;;;;;;;4.35;2.83;;;;;;;18.12;44.76;96225.75;10411507;28;20227;-65
2023/05/05 17:39:40;;;;;;;5.82;2.72;;;;;;;17.94;44.28;96193.91;10411435;28;20200;-66
2023/05/05 17:44:40;;;;;;;3.28;2.63;;;;;;;17.87;44.37;96207.19;10411008;28;20718;-65
2023/05/05 17:49:41;;;;;;;4.85;2.90;;;;;;;17.74;44.31;96189.50;10410577;28;20745;-65
2023/05/05 17:54:41;;;;;;;5.18;3.63;;;;;;;17.64;44.74;96197.94;10410633;28;20236;-66
2023/05/05 17:59:41;;;;;;;5.85;2.78;;;;;;;17.47;45.07;96202.09;10410115;28;20225;-65
2023/05/05 18:04:42;;;;;;;8.13;3.05;;;;;;;17.45;45.42;96209.47;10410620;28;20201;-66
2023/05/05 18:09:42;;;;;;;4.90;2.55;;;;;;;17.39;45.97;96220.91;10414180;28;20323;-66
2023/05/05 18:14:43;;;;;;;8.07;2.92;;;;;;;17.13;46.98;96235.06;10418634;28;20326;-66
2023/05/05 18:19:43;;;;;;;4.03;2.95;;;;;;;17.25;47.12;96247.44;10418671;28;20189;-66
2023/05/05 18:24:45;;;;;;;6.55;3.40;;;;;;;17.21;47.25;96253.34;10417263;28;20210;-66
2023/05/05 18:29:45;;;;;;;6.88;3.53;;;;;;;17.07;48.83;96298.41;10417755;28;20658;-65
2023/05/05 18:34:45;;;;;;;10.00;3.85;;;;;;;17.09;51.85;96369.66;10417838;28;20224;-63
2023/05/05 18:39:46;;;;;;;8.82;3.70;;;;;;;16.91;52.72;96386.19;10418063;28;20204;-65
2023/05/05 18:44:46;;;;;;;6.43;2.95;;;;;;;16.86;53.64;96394.72;10417327;28;20216;-65
2023/05/05 18:49:47;;;;;;;4.45;3.25;;;;;;;16.66;54.75;96412.38;10417373;28;20197;-64
2023/05/05 18:54:47;;;;;;;6.70;3.42;;;;;;;16.72;55.68;96433.56;10417195;28;20238;-64
2023/05/05 18:59:47;;;;;;;6.97;3.45;;;;;;;16.38;59.41;96480.25;10416778;28;20675;-64
2023/05/05 19:04:48;;;;;;;5.88;3.13;;;;;;;15.76;59.51;96442.41;10416649;28;20239;-64
2023/05/05 19:09:48;;;;;;;9.32;3.42;;;;;;;15.82;58.92;96436.38;10416969;28;20192;-64
2023/05/05 19:14:49;;;;;;;7.00;3.30;;;;;;;15.84;61.27;96467.88;10416439;28;20250;-64
2023/05/05 19:19:49;;;;;;;12.15;7.28;;;;;;;15.11;63.87;96498.00;10415570;28;20220;-63
2023/05/05 19:24:49;;;;;;;12.07;8.00;;;;;;;15.05;65.37;96503.22;10416337;28;20266;-64
2023/05/05 19:29:51;;;;;;;9.50;4.45;;;;;;;14.58;67.50;96497.50;10415954;28;20227;-65
2023/05/05 19:34:53;;;;;;;11.82;7.20;;;;;;;14.28;71.08;96516.81;10415837;28;20224;-65
2023/05/05 19:39:53;;;;;;;6.03;4.15;;;;;;;13.65;76.47;96526.13;10415656;28;20332;-66
2023/05/05 19:44:53;;;;;;;9.05;4.80;;;;;;;13.42;84.23;96527.00;10415351;28;20270;-65
2023/05/05 19:49:54;;;;;;;9.30;5.15;;;;;;;12.96;91.87;96524.41;10415332;28;20232;-67
2023/05/05 19:54:54;;;;;;;10.45;6.47;;;;;;;12.47;100.00;96518.47;10414737;28;20212;-65
2023/05/05 19:59:55;;;;;;;12.80;6.25;;;;;;;12.05;100.00;96510.97;10415198;28;20279;-65
2023/05/05 20:04:56;;;;;;;9.65;5.18;;;;;;;11.84;100.00;96512.34;10414612;28;20209;-65
2023/05/05 20:09:56;;;;;;;8.25;5.18;;;;;;;11.63;100.00;96510.25;10414227;28;20184;-66
2023/05/05 20:14:57;;;;;;;7.47;5.30;;;;;;;11.47;100.00;96505.88;10414190;28;20287;-66
2023/05/05 20:19:57;;;;;;;9.40;5.57;;;;;;;11.34;100.00;96502.94;10414061;28;20212;-65
2023/05/05 20:24:57;;;;;;;11.70;5.63;;;;;;;11.30;100.00;96499.84;10413833;28;20270;-64
2023/05/05 20:29:58;;;;;;;8.32;5.47;;;;;;;11.29;100.00;96492.16;10413815;28;20189;-66
2023/05/05 20:35:03;;;;;;;8.33;5.07;;;;;;;11.27;100.00;96479.19;10413275;28;20299;-66
2023/05/05 20:40:03;;;;;;;8.03;5.40;;;;;;;11.17;100.00;96473.31;10413024;28;20270;-66
2023/05/05 20:45:05;;;;;;;6.77;5.37;;;;;;;11.06;100.00;96467.41;10412837;28;20235;-64
2023/05/05 20:50:06;;;;;;;6.80;5.93;;;;;;;11.07;100.00;96481.31;10413137;28;20200;-65
2023/05/05 20:55:07;;;;;;;7.78;5.38;;;;;;;11.03;100.00;96482.66;10412435;28;20238;-66
2023/05/05 21:00:07;;;;;;;9.15;4.88;;;;;;;11.06;100.00;96474.47;10412835;28;20195;-66
2023/05/05 21:05:08;;;;;;;9.87;5.40;;;;;;;11.04;100.00;96453.66;10423392;28;20212;-66
2023/05/05 21:10:08;;;;;;;6.90;5.77;;;;;;;11.03;100.00;96454.63;10412325;28;20185;-67
2023/05/05 21:15:09;;;;;;;11.60;5.72;;;;;;;10.99;100.00;96444.66;10411618;28;20663;-66
2023/05/05 21:20:10;;;;;;;7.18;6.32;;;;;;;10.90;100.00;96449.06;10413320;28;20647;-66
2023/05/05 21:25:13;;;;;;;7.85;6.03;;;;;;;10.85;100.00;96454.00;10415043;28;20611;-65
2023/05/05 21:30:13;;;;;;;6.53;5.72;;;;;;;10.95;100.00;96449.41;10411726;28;20196;-67
2023/05/05 21:35:13;;;;;;;5.82;5.10;;;;;;;10.98;100.00;96443.00;10400632;28;20216;-65
2023/05/05 21:40:15;;;;;;;8.23;5.57;;;;;;;10.97;100.00;96457.09;10391189;28;20255;-63
2023/05/05 21:45:15;;;;;;;9.18;5.40;;;;;;;11.04;100.00;96445.78;10389487;28;20201;-64
2023/05/05 21:50:15;;;;;;;6.47;4.83;;;;;;;11.21;100.00;96443.97;10389251;28;20199;-65
2023/05/05 21:55:16;;;;;;;8.97;5.30;;;;;;;11.35;100.00;96429.34;10407021;28;20228;-65
2023/05/05 22:00:16;;;;;;;6.65;5.03;;;;;;;11.40;100.00;96439.31;10411122;28;20289;-65
2023/05/05 22:05:16;;;;;;;8.57;5.85;;;;;;;11.46;100.00;96437.84;10410758;28;20212;-64
2023/05/05 22:10:17;;;;;;;7.88;5.57;;;;;;;11.31;100.00;96437.72;10410726;28;20543;-64
2023/05/05 22:15:18;;;;;;;14.53;6.60;;;;;;;11.04;100.00;96437.94;10410281;28;20236;-64
2023/05/05 22:20:19;;;;;;;12.03;6.00;;;;;;;11.35;100.00;96431.16;10410391;28;20662;-63
2023/05/05 22:25:19;;;;;;;9.67;5.60;;;;;;;11.18;100.00;96431.19;10410408;28;20217;-64
2023/05/05 22:30:20;;;;;;;7.90;5.00;;;;;;;11.45;100.00;96433.56;10410159;28;20196;-64
2023/05/05 22:35:20;;;;;;;5.30;4.68;;;;;;;11.26;100.00;96440.84;10410137;28;20319;-64
2023/05/05 22:40:20;;;;;;;9.73;5.43;;;;;;;11.41;100.00;96454.91;10410038;28;20191;-64
2023/05/05 22:45:21;;;;;;;7.45;5.13;;;;;;;11.37;100.00;96452.78;10409924;28;20275;-65
2023/05/05 22:50:22;;;;;;;7.87;5.97;;;;;;;11.13;100.00;96477.22;10409770;28;20193;-64
2023/05/05 22:55:23;;;;;;;7.07;5.90;;;;;;;11.00;100.00;96504.78;10411283;28;20252;-65
2023/05/05 23:00:23;;;;;;;4.80;4.30;;;;;;;11.47;100.00;96516.38;10417514;28;20231;-66
2023/05/05 23:05:24;;;;;;;6.23;5.03;;;;;;;11.29;100.00;96495.56;10417113;28;20296;-66
2023/05/05 23:10:24;;;;;;;6.87;5.57;;;;;;;11.13;100.00;96503.44;10417303;28;20195;-66
2023/05/05 23:15:25;;;;;;;7.37;5.60;;;;;;;10.94;100.00;96515.91;10463544;22;20608;-66
2023/05/05 23:20:25;;;;;;;8.63;5.53;;;;;;;10.84;100.00;96523.09;10457246;28;20192;-66
2023/05/05 23:25:25;;;;;;;7.63;6.37;;;;;;;10.62;100.00;96522.75;10457523;28;20227;-66